Time;durP1;ratioP1;P1;durP2;ratioP2;P2;SDS_P1;SDS_P2;PMS_P1;PMS_P2;Temp;Humidity;BMP_temperature;BMP_pressure;BME280_temperature;BME280_humidity;BME280_pressure;Samples;Min_cycle;Max_cycle;Signal;HPM_P1;HPM_P2
2022/04/27 00:00:31;;;;;;;8.30;4.07;;;3.90;99.90;;;;;;5061902;28;20040;-80
2022/04/27 00:02:58;;;;;;;5.20;3.22;;;3.60;99.90;;;;;;5046885;28;20049;-79
2022/04/27 00:05:24;;;;;;;6.55;3.78;;;3.50;99.90;;;;;;5061421;28;20052;-79
2022/04/27 00:07:50;;;;;;;7.40;3.30;;;3.60;99.90;;;;;;5060261;28;20124;-79
2022/04/27 00:10:20;;;;;;;6.93;3.45;;;3.40;99.90;;;;;;5073177;28;20068;-80
2022/04/27 00:12:46;;;;;;;6.85;3.75;;;3.40;99.90;;;;;;5063110;28;20076;-79
2022/04/27 00:15:13;;;;;;;4.78;3.17;;;3.40;99.90;;;;;;5063707;28;20731;-79
2022/04/27 00:17:39;;;;;;;6.18;3.10;;;3.60;99.90;;;;;;5046129;28;20048;-79
2022/04/27 00:20:07;;;;;;;5.22;3.20;;;3.30;99.90;;;;;;5063802;28;20052;-79
2022/04/27 00:22:33;;;;;;;5.80;3.40;;;3.30;99.90;;;;;;5045519;28;20056;-79
2022/04/27 00:25:03;;;;;;;5.47;3.20;;;3.40;99.90;;;;;;5062946;28;20048;-79
2022/04/27 00:27:31;;;;;;;4.10;3.10;;;3.10;99.90;;;;;;5079648;28;20431;-79
2022/04/27 00:29:58;;;;;;;7.38;3.13;;;3.00;99.90;;;;;;5078825;28;20050;-79
2022/04/27 00:32:24;;;;;;;5.15;3.63;;;3.00;99.90;;;;;;5080126;28;20044;-78
2022/04/27 00:34:50;;;;;;;4.35;3.28;;;3.00;99.90;;;;;;5061196;28;20108;-78
2022/04/27 00:37:18;;;;;;;6.03;3.47;;;3.00;99.90;;;;;;5079798;28;20070;-79
2022/04/27 00:39:44;;;;;;;6.55;3.22;;;2.90;99.90;;;;;;5061232;28;20149;-79
2022/04/27 00:42:19;;;;;;;5.82;3.72;;;3.20;99.90;;;;;;5081146;28;20048;-79
2022/04/27 00:44:46;;;;;;;5.80;3.30;;;2.70;99.90;;;;;;5079772;28;20127;-79
2022/04/27 00:47:13;;;;;;;7.10;4.20;;;3.10;99.90;;;;;;5072240;28;20059;-79
2022/04/27 00:49:45;;;;;;;5.57;3.38;;;2.60;99.90;;;;;;5079670;28;20049;-79
2022/04/27 00:52:13;;;;;;;6.70;3.83;;;2.60;99.90;;;;;;5072437;28;20044;-79
2022/04/27 00:54:44;;;;;;;6.22;3.40;;;2.40;99.90;;;;;;5063104;28;20052;-79
2022/04/27 00:57:10;;;;;;;7.40;3.55;;;2.30;99.90;;;;;;5061893;28;20051;-79
2022/04/27 00:59:37;;;;;;;6.80;3.55;;;2.20;99.90;;;;;;5070530;28;20036;-79
2022/04/27 01:02:04;;;;;;;6.82;4.40;;;2.10;99.90;;;;;;5078645;28;21945;-79
2022/04/27 01:04:32;;;;;;;5.45;3.65;;;2.00;99.90;;;;;;5077203;28;20047;-79
2022/04/27 01:06:58;;;;;;;8.57;3.97;;;2.10;99.90;;;;;;5050721;28;20080;-79
2022/04/27 01:09:25;;;;;;;7.38;3.90;;;2.00;99.90;;;;;;5093785;28;20041;-78
2022/04/27 01:11:52;;;;;;;8.68;4.20;;;2.00;99.90;;;;;;5044825;28;20080;-79
2022/04/27 01:14:17;;;;;;;5.95;3.53;;;2.10;99.90;;;;;;5042046;28;20041;-79
2022/04/27 01:16:52;;;;;;;5.45;3.33;;;2.10;99.90;;;;;;5048990;28;20098;-79
2022/04/27 01:19:19;;;;;;;9.15;3.75;;;2.20;99.90;;;;;;5069629;28;20078;-79
2022/04/27 01:21:48;;;;;;;6.90;3.97;;;2.30;99.90;;;;;;5059337;28;20123;-79
2022/04/27 01:24:24;;;;;;;5.68;3.78;;;2.80;99.90;;;;;;5078893;28;20050;-79
2022/04/27 01:26:51;;;;;;;6.50;4.15;;;2.40;99.90;;;;;;5077517;28;20161;-79
2022/04/27 01:29:17;;;;;;;7.90;3.60;;;2.50;99.90;;;;;;5078931;28;20066;-79
2022/04/27 01:31:44;;;;;;;7.97;3.63;;;2.80;99.90;;;;;;5061485;28;20055;-79
2022/04/27 01:34:10;;;;;;;6.00;3.92;;;2.60;99.90;;;;;;5077510;28;20055;-79
2022/04/27 01:36:36;;;;;;;5.53;3.45;;;2.40;99.90;;;;;;5078686;28;20040;-79
2022/04/27 01:39:02;;;;;;;6.13;3.88;;;2.40;99.90;;;;;;5030755;28;20053;-80
2022/04/27 01:41:27;;;;;;;6.40;3.92;;;2.30;99.90;;;;;;5074911;28;20044;-80
2022/04/27 01:43:53;;;;;;;9.10;3.70;;;3.10;99.90;;;;;;5060353;28;20055;-80
2022/04/27 01:46:19;;;;;;;5.60;3.58;;;2.30;99.90;;;;;;5060794;28;20067;-79
2022/04/27 01:48:44;;;;;;;8.65;3.75;;;2.30;99.90;;;;;;5048669;28;20059;-79
2022/04/27 01:51:11;;;;;;;5.85;3.95;;;3.50;99.90;;;;;;5056971;28;20048;-78
2022/04/27 01:56:21;;;;;;;5.93;4.00;;;2.30;99.90;;;;;;5076833;28;20567;-79
2022/04/27 01:58:47;;;;;;;8.40;4.00;;;2.20;99.90;;;;;;5045787;28;20049;-79
2022/04/27 02:01:13;;;;;;;7.03;3.70;;;2.30;99.90;;;;;;5043399;28;20040;-79
2022/04/27 02:03:40;;;;;;;5.82;4.15;;;2.20;99.90;;;;;;5077619;28;20037;-79
2022/04/27 02:06:06;;;;;;;6.10;3.95;;;3.00;99.90;;;;;;5028181;28;20045;-78
2022/04/27 02:08:32;;;;;;;6.22;3.78;;;2.10;99.90;;;;;;5076376;28;20048;-78
2022/04/27 02:10:58;;;;;;;5.95;3.53;;;2.60;99.90;;;;;;5061367;28;20048;-79
2022/04/27 02:13:26;;;;;;;7.53;3.63;;;2.00;99.90;;;;;;5043371;28;20051;-79
2022/04/27 02:15:52;;;;;;;7.45;4.68;;;2.10;99.90;;;;;;5066449;28;20059;-79
2022/04/27 02:18:19;;;;;;;7.75;5.03;;;2.10;99.90;;;;;;5076611;28;20048;-79
2022/04/27 02:20:45;;;;;;;6.78;4.60;;;2.10;99.90;;;;;;5077590;28;20044;-79
2022/04/27 02:23:11;;;;;;;8.00;4.97;;;2.90;99.90;;;;;;5080017;28;20048;-79
2022/04/27 02:25:37;;;;;;;9.13;5.40;;;2.30;99.90;;;;;;5043023;28;20485;-79
2022/04/27 02:28:05;;;;;;;7.10;4.50;;;2.30;99.90;;;;;;5045109;28;20044;-79
2022/04/27 02:30:32;;;;;;;7.93;5.18;;;2.30;99.90;;;;;;5059704;28;20056;-79
2022/04/27 02:32:58;;;;;;;9.85;5.68;;;2.30;99.90;;;;;;5078302;28;20471;-78
2022/04/27 02:35:24;;;;;;;8.20;5.53;;;2.30;99.90;;;;;;5076620;28;20037;-78
2022/04/27 02:37:50;;;;;;;8.43;4.72;;;2.30;99.90;;;;;;5076993;28;20100;-79
2022/04/27 02:40:15;;;;;;;9.13;4.80;;;2.20;99.90;;;;;;5060802;28;20084;-79
2022/04/27 02:42:41;;;;;;;7.93;4.68;;;2.30;99.90;;;;;;5076010;28;20040;-79
2022/04/27 02:45:07;;;;;;;5.90;3.70;;;2.20;99.90;;;;;;5061192;28;20053;-79
2022/04/27 02:47:33;;;;;;;5.03;3.50;;;2.20;99.90;;;;;;5059382;28;20036;-79
2022/04/27 02:52:43;;;;;;;6.32;3.08;;;1.90;99.90;;;;;;5062393;28;20064;-79
2022/04/27 02:55:09;;;;;;;7.72;3.83;;;1.80;99.90;;;;;;5077048;28;20059;-80
2022/04/27 02:57:34;;;;;;;6.32;3.65;;;1.80;99.90;;;;;;5042768;28;20045;-80
2022/04/27 03:00:00;;;;;;;6.05;3.35;;;1.70;99.90;;;;;;5048590;28;20531;-80
2022/04/27 03:02:26;;;;;;;6.93;3.60;;;1.70;99.90;;;;;;5064725;28;20032;-80
2022/04/27 03:04:52;;;;;;;6.18;3.40;;;1.60;99.90;;;;;;5062972;28;20054;-79
2022/04/27 03:07:18;;;;;;;7.35;3.90;;;1.50;99.90;;;;;;5081265;28;20072;-79
2022/04/27 03:09:43;;;;;;;7.05;4.32;;;1.40;99.90;;;;;;5079841;28;20041;-79
2022/04/27 03:12:09;;;;;;;12.73;4.40;;;1.20;99.90;;;;;;5044650;28;20087;-79
2022/04/27 03:14:35;;;;;;;8.98;4.18;;;1.10;99.90;;;;;;5077748;28;20052;-79
2022/04/27 03:17:01;;;;;;;10.10;4.30;;;1.90;99.90;;;;;;5079554;28;20234;-79
2022/04/27 03:19:26;;;;;;;9.13;4.45;;;0.90;99.90;;;;;;5065095;28;20056;-79
2022/04/27 03:21:53;;;;;;;7.55;4.28;;;1.10;99.90;;;;;;5062910;28;20117;-79
2022/04/27 03:24:18;;;;;;;7.82;4.70;;;0.90;99.90;;;;;;5045036;28;20048;-79
2022/04/27 03:26:44;;;;;;;8.25;5.00;;;0.90;99.90;;;;;;5076814;28;20042;-79
2022/04/27 03:29:10;;;;;;;8.85;4.85;;;1.00;99.90;;;;;;5077833;28;20041;-79
2022/04/27 03:31:36;;;;;;;6.47;4.35;;;0.90;99.90;;;;;;5044409;28;20041;-80
2022/04/27 03:34:01;;;;;;;7.57;4.68;;;0.90;99.90;;;;;;5078190;28;20051;-80
2022/04/27 03:36:27;;;;;;;7.35;4.53;;;0.90;99.90;;;;;;5064450;28;20040;-79
2022/04/27 03:38:53;;;;;;;9.95;4.88;;;1.00;99.90;;;;;;5063222;28;20109;-79
2022/04/27 03:41:20;;;;;;;8.98;4.82;;;1.10;99.90;;;;;;5064193;28;20575;-79
2022/04/27 03:43:50;;;;;;;9.95;5.47;;;1.20;99.90;;;;;;5079055;28;20504;-80
2022/04/27 03:46:16;;;;;;;13.25;4.85;;;1.30;99.90;;;;;;5081034;28;20044;-80
2022/04/27 03:48:42;;;;;;;7.32;4.95;;;1.40;99.90;;;;;;5080481;28;20534;-80
2022/04/27 03:51:09;;;;;;;10.20;5.65;;;1.50;99.90;;;;;;5080627;28;20063;-79
2022/04/27 03:53:35;;;;;;;9.05;6.03;;;1.50;99.90;;;;;;5080751;28;20053;-79
2022/04/27 03:56:00;;;;;;;10.68;5.05;;;1.50;99.90;;;;;;5062804;28;20071;-79
2022/04/27 03:58:26;;;;;;;7.28;4.80;;;2.40;99.90;;;;;;5081214;28;20055;-79
2022/04/27 04:00:52;;;;;;;8.70;5.22;;;1.70;99.90;;;;;;5078550;28;20044;-79
2022/04/27 04:03:18;;;;;;;9.43;5.38;;;1.70;99.90;;;;;;5044468;28;20052;-79
2022/04/27 04:05:44;;;;;;;7.55;5.03;;;2.30;99.90;;;;;;5061083;28;20068;-79
2022/04/27 04:08:10;;;;;;;7.57;4.97;;;1.80;99.90;;;;;;5046153;28;20057;-79
2022/04/27 04:10:35;;;;;;;8.82;5.18;;;2.50;99.90;;;;;;5079569;28;20493;-79
2022/04/27 04:13:02;;;;;;;9.52;4.97;;;1.90;99.90;;;;;;5061791;28;20048;-79
2022/04/27 04:15:27;;;;;;;8.27;5.18;;;1.90;99.90;;;;;;5063873;28;20077;-79
2022/04/27 04:17:54;;;;;;;9.38;4.68;;;2.10;99.90;;;;;;5076254;28;20076;-79
2022/04/27 04:20:19;;;;;;;9.52;4.90;;;1.90;99.90;;;;;;5080272;28;20146;-78
2022/04/27 04:22:46;;;;;;;8.55;4.68;;;1.90;99.90;;;;;;5079412;28;20044;-78
2022/04/27 04:30:43;;;;;;;8.35;4.93;;;1.90;99.90;;;;;;5078331;28;20052;-78
2022/04/27 04:33:09;;;;;;;8.35;5.00;;;2.20;99.90;;;;;;5043756;28;20419;-78
2022/04/27 04:35:36;;;;;;;11.93;5.20;;;2.00;99.90;;;;;;5060149;28;20056;-78
2022/04/27 04:38:02;;;;;;;8.55;5.18;;;2.10;99.90;;;;;;5079031;28;20047;-78
2022/04/27 04:40:28;;;;;;;9.43;5.78;;;2.30;99.90;;;;;;5079474;28;20056;-78
2022/04/27 04:42:53;;;;;;;8.82;5.32;;;2.20;99.90;;;;;;5078450;28;20048;-78
2022/04/27 04:45:19;;;;;;;8.50;5.40;;;2.40;99.90;;;;;;5079261;28;20133;-78
2022/04/27 04:47:45;;;;;;;13.75;6.15;;;2.40;99.90;;;;;;5077641;28;20059;-78
2022/04/27 04:50:12;;;;;;;7.97;5.03;;;2.70;99.90;;;;;;5086691;28;20056;-78
2022/04/27 04:52:38;;;;;;;9.35;5.00;;;2.50;99.90;;;;;;5070900;28;20048;-78
2022/04/27 04:55:04;;;;;;;10.20;6.47;;;2.70;99.90;;;;;;5078801;28;20048;-81
2022/04/27 04:57:30;;;;;;;13.75;6.05;;;2.60;99.90;;;;;;5043153;28;20043;-80
2022/04/27 04:59:56;;;;;;;12.30;6.60;;;2.80;99.90;;;;;;5062410;28;20485;-81
2022/04/27 05:02:22;;;;;;;13.25;6.65;;;2.80;99.90;;;;;;5062865;28;20059;-80
2022/04/27 05:04:49;;;;;;;9.93;6.65;;;3.00;99.90;;;;;;5077676;28;20048;-80
2022/04/27 05:07:18;;;;;;;11.07;5.88;;;3.10;99.90;;;;;;5062683;28;20049;-79
2022/04/27 05:09:47;;;;;;;12.07;5.88;;;3.90;99.90;;;;;;5061381;28;20531;-79
2022/04/27 05:12:12;;;;;;;12.88;6.35;;;3.30;99.90;;;;;;5078601;28;20036;-79
2022/04/27 05:14:38;;;;;;;11.80;6.05;;;3.80;99.90;;;;;;5062115;28;20190;-80
2022/04/27 05:17:04;;;;;;;10.43;6.68;;;3.60;99.90;;;;;;5065932;28;20061;-79
2022/04/27 05:19:30;;;;;;;11.82;7.22;;;3.80;99.90;;;;;;5078911;28;20074;-79
2022/04/27 05:21:55;;;;;;;13.95;7.18;;;4.00;99.90;;;;;;5076326;28;20052;-80
2022/04/27 05:24:21;;;;;;;12.23;7.15;;;4.10;99.90;;;;;;5058294;28;20048;-80
2022/04/27 05:26:47;;;;;;;11.98;7.38;;;4.30;99.90;;;;;;5061248;28;20043;-80
2022/04/27 05:31:58;;;;;;;14.73;6.85;;;4.80;99.90;;;;;;5078526;28;20068;-80
2022/04/27 05:34:25;;;;;;;9.73;6.45;;;4.70;99.90;;;;;;5077343;28;20059;-80
2022/04/27 05:36:51;;;;;;;10.20;6.07;;;4.90;99.90;;;;;;5042296;28;20087;-81
2022/04/27 05:39:18;;;;;;;8.93;6.15;;;5.00;99.90;;;;;;5057553;28;20419;-80
2022/04/27 05:41:44;;;;;;;10.20;6.00;;;5.20;99.90;;;;;;5043697;28;20041;-81
2022/04/27 05:44:12;;;;;;;11.32;6.47;;;5.20;99.90;;;;;;5060909;28;20534;-80
2022/04/27 05:46:38;;;;;;;11.77;5.75;;;5.20;99.90;;;;;;5061262;28;20083;-80
2022/04/27 05:49:04;;;;;;;15.10;6.43;;;5.60;99.90;;;;;;5078477;28;20052;-80
2022/04/27 05:51:30;;;;;;;11.63;6.57;;;5.40;99.90;;;;;;5085536;28;20053;-81
2022/04/27 05:53:56;;;;;;;13.27;6.78;;;5.50;99.90;;;;;;5093744;28;20037;-81
2022/04/27 05:56:23;;;;;;;11.20;5.78;;;5.60;99.90;;;;;;5076838;28;20119;-81
2022/04/27 05:58:49;;;;;;;11.27;6.70;;;5.60;99.90;;;;;;5071629;28;20089;-80
2022/04/27 06:01:15;;;;;;;12.07;6.07;;;5.70;99.90;;;;;;5069018;28;20409;-80
2022/04/27 06:03:41;;;;;;;11.45;6.18;;;6.20;99.90;;;;;;5077686;28;20069;-81
2022/04/27 06:06:07;;;;;;;11.70;6.57;;;5.90;99.90;;;;;;5060913;28;20160;-80
2022/04/27 06:08:33;;;;;;;10.23;6.72;;;6.00;99.90;;;;;;5059801;28;20108;-81
2022/04/27 06:10:59;;;;;;;12.48;6.90;;;6.00;99.90;;;;;;5061121;28;20091;-81
2022/04/27 06:13:24;;;;;;;12.18;6.63;;;6.10;99.90;;;;;;5059854;28;20048;-80
2022/04/27 06:15:50;;;;;;;15.30;6.78;;;6.70;99.90;;;;;;5066841;28;20071;-80
2022/04/27 06:18:16;;;;;;;13.52;6.95;;;6.20;99.90;;;;;;5077386;28;20423;-81
2022/04/27 06:20:42;;;;;;;11.10;6.07;;;6.20;99.90;;;;;;5077685;28;20106;-81
2022/04/27 06:23:09;;;;;;;13.63;6.90;;;6.60;99.90;;;;;;5078036;28;20109;-80
2022/04/27 06:25:36;;;;;;;12.50;6.15;;;6.40;99.90;;;;;;5059838;28;20044;-80
2022/04/27 06:28:02;;;;;;;13.85;6.78;;;6.50;99.90;;;;;;5078512;28;20045;-79
2022/04/27 06:30:28;;;;;;;12.88;6.35;;;6.60;99.90;;;;;;5076287;28;20063;-79
2022/04/27 06:32:54;;;;;;;9.10;5.43;;;6.60;99.90;;;;;;5063316;28;20127;-79
2022/04/27 06:35:19;;;;;;;11.15;7.07;;;6.70;99.90;;;;;;5081079;28;20067;-83
2022/04/27 06:37:45;;;;;;;11.48;6.45;;;6.90;99.90;;;;;;5064989;28;20072;-83
2022/04/27 06:40:12;;;;;;;12.60;6.72;;;6.80;99.90;;;;;;5081096;28;20065;-83
2022/04/27 06:42:44;;;;;;;10.32;5.93;;;6.80;99.90;;;;;;5080508;28;20590;-83
2022/04/27 06:45:11;;;;;;;11.05;7.25;;;7.00;99.90;;;;;;5082158;28;20048;-82
2022/04/27 06:47:36;;;;;;;12.02;6.72;;;7.00;99.90;;;;;;5079876;28;20044;-83
2022/04/27 06:50:02;;;;;;;12.63;6.72;;;7.00;99.90;;;;;;5065298;28;20056;-83
2022/04/27 06:52:28;;;;;;;10.70;6.00;;;7.60;99.90;;;;;;5044126;28;20037;-83
2022/04/27 06:54:54;;;;;;;12.43;6.05;;;7.00;99.90;;;;;;5075407;28;20052;-83
2022/04/27 06:57:20;;;;;;;11.38;6.47;;;7.10;99.90;;;;;;5081690;28;20047;-83
2022/04/27 06:59:45;;;;;;;11.30;5.45;;;7.20;99.90;;;;;;5067182;28;20052;-83
2022/04/27 07:02:14;;;;;;;8.77;4.95;;;7.20;99.90;;;;;;5048532;28;20044;-83
2022/04/27 07:04:48;;;;;;;9.02;4.65;;;7.30;99.90;;;;;;5078752;28;20481;-83
2022/04/27 07:07:14;;;;;;;12.80;6.72;;;7.30;99.90;;;;;;5077309;28;20057;-86
2022/04/27 07:09:40;;;;;;;9.73;4.88;;;7.40;99.90;;;;;;5076553;28;20041;-83
2022/04/27 07:12:06;;;;;;;11.45;4.88;;;7.40;99.90;;;;;;5074611;28;20508;-83
2022/04/27 07:14:32;;;;;;;9.73;4.88;;;7.50;99.90;;;;;;5063779;28;20052;-83
2022/04/27 07:16:58;;;;;;;9.65;4.90;;;7.50;99.90;;;;;;5067862;28;20083;-83
2022/04/27 07:19:23;;;;;;;10.07;5.82;;;7.60;99.90;;;;;;5075202;28;20076;-83
2022/04/27 07:21:49;;;;;;;9.85;5.15;;;7.60;99.90;;;;;;5062232;28;20066;-84
2022/04/27 07:24:15;;;;;;;9.60;5.57;;;7.70;99.90;;;;;;5081075;28;20040;-84
2022/04/27 07:26:40;;;;;;;7.88;4.40;;;7.80;99.90;;;;;;5079972;28;20048;-83
2022/04/27 07:29:08;;;;;;;7.13;3.92;;;7.90;99.90;;;;;;5080973;28;20045;-83
2022/04/27 07:31:34;;;;;;;8.40;4.13;;;7.90;99.90;;;;;;5080855;28;20439;-82
2022/04/27 07:33:59;;;;;;;5.85;3.92;;;8.00;99.90;;;;;;5063330;28;20104;-82
2022/04/27 07:36:25;;;;;;;7.90;4.32;;;8.10;99.90;;;;;;5081247;28;20048;-83
2022/04/27 07:38:51;;;;;;;6.25;3.10;;;8.10;99.90;;;;;;5062112;28;20048;-84
2022/04/27 07:41:17;;;;;;;5.57;3.33;;;8.20;99.90;;;;;;5080859;28;20047;-83
2022/04/27 07:43:42;;;;;;;8.35;3.83;;;8.20;99.90;;;;;;5078158;28;20072;-82
2022/04/27 07:46:09;;;;;;;7.55;3.95;;;8.30;99.90;;;;;;5080898;28;20049;-83
2022/04/27 07:48:37;;;;;;;7.22;3.55;;;8.40;99.90;;;;;;5080579;28;20487;-83
2022/04/27 07:51:06;;;;;;;7.70;3.92;;;8.50;99.90;;;;;;5079502;28;20063;-83
2022/04/27 07:53:32;;;;;;;8.13;3.65;;;8.60;99.90;;;;;;5064478;28;20083;-84
2022/04/27 07:55:57;;;;;;;8.57;4.32;;;8.60;99.90;;;;;;5062663;28;20652;-84
2022/04/27 07:58:23;;;;;;;7.50;3.90;;;8.70;99.90;;;;;;5064230;28;20056;-84
2022/04/27 08:00:50;;;;;;;7.38;4.18;;;8.80;99.90;;;;;;5078899;28;20071;-83
2022/04/27 08:03:16;;;;;;;7.65;3.38;;;8.90;99.90;;;;;;5040373;28;20049;-85
2022/04/27 08:05:42;;;;;;;7.03;3.55;;;8.90;99.90;;;;;;5043494;28;20045;-84
2022/04/27 08:08:10;;;;;;;7.85;3.58;;;9.00;99.90;;;;;;5042637;28;20092;-85
2022/04/27 08:10:37;;;;;;;5.65;3.72;;;9.10;99.90;;;;;;5043454;28;20056;-84
2022/04/27 08:13:02;;;;;;;7.53;3.33;;;9.10;99.90;;;;;;5056729;28;20467;-85
2022/04/27 08:15:28;;;;;;;6.03;3.60;;;9.20;99.90;;;;;;5080026;28;20037;-84
2022/04/27 08:18:03;;;;;;;5.70;3.08;;;9.30;99.90;;;;;;5079237;28;20116;-85
2022/04/27 08:23:22;;;;;;;8.02;3.88;;;9.50;99.90;;;;;;5080091;28;20048;-84
2022/04/27 08:25:49;;;;;;;4.30;2.22;;;9.50;99.90;;;;;;5045970;28;20128;-84
2022/04/27 08:28:16;;;;;;;5.18;2.83;;;9.60;99.90;;;;;;5080539;28;20059;-85
2022/04/27 08:30:44;;;;;;;5.95;2.92;;;9.70;99.90;;;;;;5061651;28;20137;-85
2022/04/27 08:33:11;;;;;;;5.97;3.15;;;9.80;99.90;;;;;;5063529;28;20084;-85
2022/04/27 08:35:37;;;;;;;6.78;3.30;;;9.90;99.90;;;;;;5062582;28;20055;-84
2022/04/27 08:38:05;;;;;;;3.95;2.20;;;9.90;99.90;;;;;;5078996;28;20052;-85
2022/04/27 08:40:31;;;;;;;3.67;2.53;;;10.00;99.90;;;;;;5062639;28;20051;-86
2022/04/27 08:43:01;;;;;;;4.63;3.03;;;10.10;99.90;;;;;;5078180;28;20036;-86
2022/04/27 08:45:27;;;;;;;7.13;2.85;;;10.20;99.90;;;;;;5079718;28;20048;-85
2022/04/27 08:47:53;;;;;;;6.30;3.25;;;10.30;99.90;;;;;;5078295;28;20052;-84
2022/04/27 08:50:21;;;;;;;6.03;3.00;;;10.40;99.90;;;;;;5079714;28;20048;-85
2022/04/27 08:52:48;;;;;;;5.65;3.28;;;10.40;99.90;;;;;;5078921;28;20140;-84
2022/04/27 08:55:14;;;;;;;6.88;2.72;;;10.40;99.90;;;;;;5078298;28;20048;-87
2022/04/27 08:57:41;;;;;;;5.25;3.20;;;10.40;99.90;;;;;;5064979;28;20051;-86
2022/04/27 09:00:09;;;;;;;5.43;3.35;;;10.40;99.90;;;;;;5080844;28;20051;-86
2022/04/27 09:02:35;;;;;;;6.50;2.65;;;10.40;99.90;;;;;;5092672;28;20048;-85
2022/04/27 09:05:08;;;;;;;4.78;2.90;;;10.40;99.90;;;;;;5060724;28;20053;-85
2022/04/27 09:07:40;;;;;;;3.95;2.40;;;10.50;99.90;;;;;;5062070;28;20064;-84
2022/04/27 09:10:25;;;;;;;3.20;1.98;;;10.50;99.90;;;;;;5061562;28;20048;-85
2022/04/27 09:12:53;;;;;;;3.88;2.08;;;10.50;99.90;;;;;;5077326;28;20052;-86
2022/04/27 09:15:21;;;;;;;5.30;2.53;;;10.50;99.90;;;;;;5065803;28;20040;-86
2022/04/27 09:20:48;;;;;;;4.00;2.30;;;10.50;99.90;;;;;;5097921;28;20048;-85
2022/04/27 09:23:21;;;;;;;4.93;2.50;;;10.50;99.90;;;;;;5067415;28;20044;-84
2022/04/27 09:25:48;;;;;;;4.32;2.70;;;10.40;99.90;;;;;;5097265;28;20051;-85
2022/04/27 09:28:14;;;;;;;3.88;2.30;;;10.40;99.90;;;;;;5099414;28;20129;-86
2022/04/27 09:30:43;;;;;;;6.15;2.40;;;10.40;99.90;;;;;;5080308;28;20838;-85
2022/04/27 09:33:09;;;;;;;5.72;2.70;;;10.50;99.90;;;;;;5078855;28;20044;-86
2022/04/27 09:35:36;;;;;;;3.05;2.00;;;10.50;99.90;;;;;;5061179;28;20044;-83
2022/04/27 09:38:15;;;;;;;5.53;2.50;;;10.50;99.90;;;;;;5077932;28;20048;-86
2022/04/27 09:40:50;;;;;;;3.88;2.55;;;10.60;99.90;;;;;;5061766;28;20076;-87
2022/04/27 09:43:16;;;;;;;3.45;2.40;;;10.70;99.90;;;;;;5076713;28;20049;-86
2022/04/27 09:45:43;;;;;;;5.70;2.67;;;10.80;99.90;;;;;;5061988;28;20077;-85
2022/04/27 09:48:15;;;;;;;7.20;2.42;;;10.90;99.90;;;;;;5077133;28;20049;-85
2022/04/27 09:50:56;;;;;;;6.10;2.17;;;10.90;99.90;;;;;;5061009;28;20052;-85
2022/04/27 09:53:22;;;;;;;3.58;2.28;;;11.00;99.90;;;;;;5078508;28;20052;-85
2022/04/27 09:55:51;;;;;;;5.53;2.00;;;11.00;99.90;;;;;;5040313;28;20037;-85
2022/04/27 09:58:19;;;;;;;3.33;2.28;;;11.00;99.90;;;;;;5057591;28;20539;-85
2022/04/27 10:00:48;;;;;;;3.22;2.20;;;11.40;99.90;;;;;;5080703;28;20419;-86
2022/04/27 10:03:15;;;;;;;5.60;2.88;;;11.00;99.90;;;;;;5085961;28;20048;-85
2022/04/27 10:05:42;;;;;;;3.10;2.35;;;11.00;99.90;;;;;;5061135;28;20060;-85
2022/04/27 10:08:09;;;;;;;3.63;2.47;;;11.00;99.90;;;;;;5076421;28;20064;-85
2022/04/27 10:10:41;;;;;;;3.25;2.22;;;11.00;99.90;;;;;;5077977;28;20112;-85
2022/04/27 10:13:12;;;;;;;3.40;1.92;;;10.30;99.90;;;;;;5059550;28;20037;-86
2022/04/27 10:15:45;;;;;;;4.70;1.90;;;11.10;99.90;;;;;;5084686;28;20063;-85
2022/04/27 10:18:18;;;;;;;6.35;2.45;;;11.10;99.90;;;;;;5097335;28;20047;-85
2022/04/27 10:20:49;;;;;;;4.50;2.10;;;11.20;99.90;;;;;;5063996;28;20127;-84
2022/04/27 10:23:22;;;;;;;4.15;2.10;;;11.10;99.90;;;;;;5081346;28;20047;-85
2022/04/27 10:26:07;;;;;;;3.72;1.63;;;11.20;99.90;;;;;;5096102;28;20048;-86
2022/04/27 10:28:36;;;;;;;7.35;2.10;;;11.10;99.90;;;;;;5097832;28;20052;-85
2022/04/27 10:31:07;;;;;;;4.28;2.15;;;11.10;99.90;;;;;;5080435;28;20048;-85
2022/04/27 10:33:55;;;;;;;3.70;1.98;;;11.10;99.90;;;;;;5097795;28;20047;-87
2022/04/27 10:36:22;;;;;;;4.05;2.28;;;11.20;99.90;;;;;;5084939;28;20045;-84
2022/04/27 10:39:13;;;;;;;3.38;1.88;;;11.20;99.90;;;;;;5071601;28;20537;-85
2022/04/27 10:42:08;;;;;;;3.30;1.73;;;11.20;99.90;;;;;;5060646;28;20056;-85
2022/04/27 10:44:50;;;;;;;3.88;2.10;;;11.30;99.90;;;;;;5053828;28;20463;-85
2022/04/27 10:47:20;;;;;;;2.38;1.95;;;11.50;99.90;;;;;;5059661;28;20040;-85
2022/04/27 10:49:48;;;;;;;4.07;2.05;;;11.60;99.90;;;;;;5045073;28;20033;-86
2022/04/27 10:52:15;;;;;;;3.45;2.00;;;11.70;99.90;;;;;;5076337;28;20047;-85
2022/04/27 10:54:41;;;;;;;3.03;2.13;;;11.70;99.90;;;;;;5077885;28;20084;-86
2022/04/27 10:57:16;;;;;;;5.50;2.22;;;11.70;99.90;;;;;;5060168;28;20055;-86
2022/04/27 10:59:50;;;;;;;4.38;2.55;;;11.70;99.90;;;;;;5079038;28;20054;-85
2022/04/27 11:02:38;;;;;;;5.57;2.35;;;11.70;99.90;;;;;;5093569;28;20485;-85
2022/04/27 11:05:10;;;;;;;7.05;2.40;;;11.80;99.90;;;;;;5075894;28;20052;-86
2022/04/27 11:07:42;;;;;;;3.05;1.55;;;11.70;99.90;;;;;;5060582;28;20087;-85
2022/04/27 11:10:14;;;;;;;5.55;2.10;;;11.70;99.90;;;;;;5077300;28;20399;-86
2022/04/27 11:12:42;;;;;;;2.58;1.67;;;11.80;99.90;;;;;;5075707;28;20049;-83
2022/04/27 11:15:13;;;;;;;2.60;1.75;;;11.80;99.90;;;;;;5079606;28;20551;-83
2022/04/27 11:17:40;;;;;;;3.95;2.08;;;11.80;99.90;;;;;;5096170;28;20534;-85
2022/04/27 11:20:21;;;;;;;3.30;1.92;;;11.70;99.90;;;;;;5084222;28;20054;-85
2022/04/27 11:22:47;;;;;;;2.97;2.13;;;11.70;99.90;;;;;;5101162;28;20072;-85
2022/04/27 11:25:21;;;;;;;4.10;2.13;;;12.00;99.90;;;;;;5100057;28;20055;-86
2022/04/27 11:27:48;;;;;;;4.00;2.13;;;12.20;99.90;;;;;;5101285;28;20047;-86
2022/04/27 11:30:14;;;;;;;3.97;2.13;;;12.40;99.90;;;;;;5099600;28;20083;-84
2022/04/27 11:32:43;;;;;;;2.90;1.95;;;12.30;99.90;;;;;;5084425;28;20040;-85
2022/04/27 11:35:09;;;;;;;4.70;2.03;;;12.50;99.90;;;;;;5079868;28;20052;-83
2022/04/27 11:37:37;;;;;;;3.50;2.10;;;12.90;99.90;;;;;;5064306;28;20126;-85
2022/04/27 11:40:18;;;;;;;2.42;1.70;;;13.30;99.90;;;;;;5063419;28;20044;-83
2022/04/27 11:42:46;;;;;;;2.80;1.67;;;13.70;99.90;;;;;;5074725;28;20053;-82
2022/04/27 11:45:22;;;;;;;4.18;2.03;;;14.10;99.90;;;;;;5077576;28;20052;-82
2022/04/27 11:48:10;;;;;;;2.90;1.77;;;14.50;99.90;;;;;;5075183;28;20072;-85
2022/04/27 11:50:38;;;;;;;3.65;1.95;;;14.70;99.90;;;;;;5075130;28;20029;-83
2022/04/27 11:53:14;;;;;;;3.60;1.77;;;14.70;99.90;;;;;;5077008;28;20056;-84
2022/04/27 11:55:42;;;;;;;7.15;2.03;;;14.60;99.90;;;;;;5079339;28;20503;-85
2022/04/27 11:58:08;;;;;;;4.90;1.88;;;14.40;99.90;;;;;;5086848;28;20098;-83
2022/04/27 12:00:34;;;;;;;2.20;1.55;;;14.40;99.90;;;;;;5079555;28;20056;-85
2022/04/27 12:03:04;;;;;;;3.05;1.88;;;14.30;99.90;;;;;;5083536;28;20032;-83
2022/04/27 12:05:35;;;;;;;4.43;2.13;;;14.20;99.90;;;;;;5068968;28;20493;-84
2022/04/27 12:08:11;;;;;;;4.05;2.05;;;14.00;99.90;;;;;;5080304;28;20071;-84
2022/04/27 12:10:42;;;;;;;3.97;1.80;;;13.90;99.90;;;;;;5074203;28;20045;-85
2022/04/27 12:13:09;;;;;;;4.55;1.80;;;13.70;99.90;;;;;;5078641;28;20408;-85
2022/04/27 12:15:39;;;;;;;3.95;2.20;;;13.60;99.90;;;;;;5086530;28;20033;-85
2022/04/27 12:18:05;;;;;;;4.47;2.03;;;13.80;99.90;;;;;;5082078;28;20040;-86
2022/04/27 12:20:41;;;;;;;3.88;2.00;;;13.80;99.90;;;;;;5099056;28;20048;-86
2022/04/27 12:23:07;;;;;;;4.18;2.30;;;14.00;99.90;;;;;;5083598;28;20378;-86
2022/04/27 12:25:56;;;;;;;6.25;2.10;;;14.10;99.90;;;;;;5098303;28;20138;-85
2022/04/27 12:28:26;;;;;;;4.13;1.83;;;14.50;99.90;;;;;;5083231;28;20062;-85
2022/04/27 12:31:02;;;;;;;3.53;1.90;;;14.90;99.90;;;;;;5098304;28;20054;-85
2022/04/27 12:33:42;;;;;;;3.90;2.00;;;15.30;99.90;;;;;;5099166;28;20484;-84
2022/04/27 12:39:03;;;;;;;2.65;1.65;;;15.70;99.90;;;;;;5063848;28;20109;-85
2022/04/27 12:41:32;;;;;;;4.35;2.22;;;15.70;99.90;;;;;;5062595;28;20053;-84
2022/04/27 12:44:07;;;;;;;5.97;2.17;;;15.60;99.90;;;;;;5078478;28;20101;-85
2022/04/27 12:46:33;;;;;;;3.33;1.77;;;15.50;99.90;;;;;;5078789;28;20049;-82
2022/04/27 12:49:04;;;;;;;3.28;1.83;;;15.40;99.90;;;;;;5079304;28;20056;-83
2022/04/27 12:51:33;;;;;;;4.88;1.70;;;15.30;99.90;;;;;;5061096;28;20044;-84
2022/04/27 12:53:59;;;;;;;3.25;1.70;;;15.30;99.90;;;;;;5063216;28;20428;-84
2022/04/27 12:56:33;;;;;;;3.88;2.25;;;15.40;99.90;;;;;;5077789;28;20036;-83
2022/04/27 12:59:07;;;;;;;4.43;2.10;;;15.50;99.90;;;;;;5059472;28;20048;-83
2022/04/27 13:01:33;;;;;;;4.32;1.98;;;15.20;99.90;;;;;;5070290;28;20044;-85
2022/04/27 13:03:59;;;;;;;5.22;2.40;;;14.80;99.90;;;;;;5077691;28;20083;-84
2022/04/27 13:06:25;;;;;;;4.72;2.03;;;14.60;99.90;;;;;;5062938;28;20087;-83
2022/04/27 13:08:51;;;;;;;6.50;2.40;;;14.50;99.90;;;;;;5060376;28;20547;-83
2022/04/27 13:14:03;;;;;;;4.63;2.30;;;14.30;99.90;;;;;;5078166;28;20049;-84
2022/04/27 13:16:28;;;;;;;4.05;2.38;;;14.20;99.90;;;;;;5091213;28;20059;-84
2022/04/27 13:18:55;;;;;;;4.55;2.10;;;14.20;99.90;;;;;;5099402;28;20056;-83